Detroit, Michigan
Current Conditions -  °F | °C
As of 9:00 AM on Tuesday 27 Jan 2015 (Local Time) from CYQG Reporting Station
Broken Clouds Broken Clouds  
Wind Chill:   Ceiling: 2200
Heat Index: 16°   Visibility: 15mi
Dew Point:   Wind: 7mph
Humidity: 73%   Direction: 350°N
Pressure: 30.09"   Gusts: NA
Location:  42.33°N, 83.05°W
Report Text: CYQG 271400Z 35006KT 15SM BKN022 M09/M13 A3009 RMK SC6 SLP200
Loading
Personal Weather Stations






























Interactive Weather Map New forecast layout! Learn more

10-Day Weather Forecast

Advertisements
Track Severe Weather on mobile